sensor_id;sensor_type;location;lat;lon;timestamp;temperature;humidity
7708;DHT22;3896;48.758;8.888;2023-08-31T00:01:32;15.50;99.90
7708;DHT22;3896;48.758;8.888;2023-08-31T00:03:59;15.50;99.90
7708;DHT22;3896;48.758;8.888;2023-08-31T00:06:25;15.50;99.90
7708;DHT22;3896;48.758;8.888;2023-08-31T00:08:50;15.40;99.90
7708;DHT22;3896;48.758;8.888;2023-08-31T00:11:16;15.40;99.90
7708;DHT22;3896;48.758;8.888;2023-08-31T00:13:42;15.40;99.90
7708;DHT22;3896;48.758;8.888;2023-08-31T00:16:08;15.30;99.90
7708;DHT22;3896;48.758;8.888;2023-08-31T00:18:35;15.30;99.90
7708;DHT22;3896;48.758;8.888;2023-08-31T00:21:02;15.20;99.90
7708;DHT22;3896;48.758;8.888;2023-08-31T00:23:28;15.20;99.90
7708;DHT22;3896;48.758;8.888;2023-08-31T00:25:54;15.10;99.90
7708;DHT22;3896;48.758;8.888;2023-08-31T00:28:21;15.10;99.90
7708;DHT22;3896;48.758;8.888;2023-08-31T00:30:46;15.00;99.90
7708;DHT22;3896;48.758;8.888;2023-08-31T00:33:14;15.00;99.90
7708;DHT22;3896;48.758;8.888;2023-08-31T00:35:40;15.00;99.90
7708;DHT22;3896;48.758;8.888;2023-08-31T00:38:11;14.90;99.90
7708;DHT22;3896;48.758;8.888;2023-08-31T00:40:40;14.90;99.90
7708;DHT22;3896;48.758;8.888;2023-08-31T00:43:09;14.80;99.90
7708;DHT22;3896;48.758;8.888;2023-08-31T00:45:37;14.80;99.90
7708;DHT22;3896;48.758;8.888;2023-08-31T00:48:04;14.80;99.90
7708;DHT22;3896;48.758;8.888;2023-08-31T00:50:30;14.70;99.90
7708;DHT22;3896;48.758;8.888;2023-08-31T00:52:56;14.70;99.90
7708;DHT22;3896;48.758;8.888;2023-08-31T00:55:22;14.60;99.90
7708;DHT22;3896;48.758;8.888;2023-08-31T00:57:48;14.60;99.90
7708;DHT22;3896;48.758;8.888;2023-08-31T01:00:14;14.50;99.90
7708;DHT22;3896;48.758;8.888;2023-08-31T01:06:16;14.40;99.90
7708;DHT22;3896;48.758;8.888;2023-08-31T01:11:26;14.30;99.90
7708;DHT22;3896;48.758;8.888;2023-08-31T01:14:05;14.20;99.90
7708;DHT22;3896;48.758;8.888;2023-08-31T01:16:34;14.20;99.90
7708;DHT22;3896;48.758;8.888;2023-08-31T01:19:04;14.20;99.90
7708;DHT22;3896;48.758;8.888;2023-08-31T01:21:35;14.10;99.90
7708;DHT22;3896;48.758;8.888;2023-08-31T01:24:04;14.10;99.90
7708;DHT22;3896;48.758;8.888;2023-08-31T01:26:30;14.10;99.90
7708;DHT22;3896;48.758;8.888;2023-08-31T01:28:56;14.00;99.90
7708;DHT22;3896;48.758;8.888;2023-08-31T01:31:22;14.00;99.90
7708;DHT22;3896;48.758;8.888;2023-08-31T01:33:48;14.00;99.90
7708;DHT22;3896;48.758;8.888;2023-08-31T01:38:58;13.80;99.90
7708;DHT22;3896;48.758;8.888;2023-08-31T01:41:29;13.80;99.90
7708;DHT22;3896;48.758;8.888;2023-08-31T01:44:00;13.80;99.90
7708;DHT22;3896;48.758;8.888;2023-08-31T01:46:26;13.70;99.90
7708;DHT22;3896;48.758;8.888;2023-08-31T01:48:52;13.70;99.90
7708;DHT22;3896;48.758;8.888;2023-08-31T01:51:17;13.70;99.90
7708;DHT22;3896;48.758;8.888;2023-08-31T01:53:43;13.60;99.90
7708;DHT22;3896;48.758;8.888;2023-08-31T01:56:10;13.60;99.90
7708;DHT22;3896;48.758;8.888;2023-08-31T01:58:35;13.60;99.90
7708;DHT22;3896;48.758;8.888;2023-08-31T02:01:01;13.60;99.90
7708;DHT22;3896;48.758;8.888;2023-08-31T02:03:26;13.60;99.90
7708;DHT22;3896;48.758;8.888;2023-08-31T02:05:52;13.60;99.90
7708;DHT22;3896;48.758;8.888;2023-08-31T02:08:18;13.60;99.90
7708;DHT22;3896;48.758;8.888;2023-08-31T02:10:46;13.60;99.90
7708;DHT22;3896;48.758;8.888;2023-08-31T02:26:14;13.50;99.90
7708;DHT22;3896;48.758;8.888;2023-08-31T02:28:40;13.50;99.90
7708;DHT22;3896;48.758;8.888;2023-08-31T02:31:05;13.50;99.90
7708;DHT22;3896;48.758;8.888;2023-08-31T02:33:31;13.50;99.90
7708;DHT22;3896;48.758;8.888;2023-08-31T02:35:56;13.50;99.90
7708;DHT22;3896;48.758;8.888;2023-08-31T02:40:59;13.50;99.90
7708;DHT22;3896;48.758;8.888;2023-08-31T02:43:25;13.50;99.90
7708;DHT22;3896;48.758;8.888;2023-08-31T02:45:59;13.50;99.90
7708;DHT22;3896;48.758;8.888;2023-08-31T02:48:25;13.50;99.90
7708;DHT22;3896;48.758;8.888;2023-08-31T02:50:50;13.50;99.90
7708;DHT22;3896;48.758;8.888;2023-08-31T02:53:16;13.50;99.90
7708;DHT22;3896;48.758;8.888;2023-08-31T02:55:42;13.50;99.90
7708;DHT22;3896;48.758;8.888;2023-08-31T02:58:08;13.50;99.90
7708;DHT22;3896;48.758;8.888;2023-08-31T03:00:33;13.50;99.90
7708;DHT22;3896;48.758;8.888;2023-08-31T03:02:59;13.50;99.90
7708;DHT22;3896;48.758;8.888;2023-08-31T03:05:24;13.50;99.90
7708;DHT22;3896;48.758;8.888;2023-08-31T03:07:50;13.50;99.90
7708;DHT22;3896;48.758;8.888;2023-08-31T03:10:16;13.40;99.90
7708;DHT22;3896;48.758;8.888;2023-08-31T03:12:41;13.40;99.90
7708;DHT22;3896;48.758;8.888;2023-08-31T03:15:07;13.40;99.90
7708;DHT22;3896;48.758;8.888;2023-08-31T03:17:33;13.40;99.90
7708;DHT22;3896;48.758;8.888;2023-08-31T03:19:58;13.40;99.90
7708;DHT22;3896;48.758;8.888;2023-08-31T03:22:24;13.40;99.90
7708;DHT22;3896;48.758;8.888;2023-08-31T03:24:49;13.30;99.90
7708;DHT22;3896;48.758;8.888;2023-08-31T03:27:15;13.30;99.90
7708;DHT22;3896;48.758;8.888;2023-08-31T03:29:44;13.30;99.90
7708;DHT22;3896;48.758;8.888;2023-08-31T03:32:10;13.30;99.90
7708;DHT22;3896;48.758;8.888;2023-08-31T03:34:35;13.30;99.90
7708;DHT22;3896;48.758;8.888;2023-08-31T03:37:01;13.20;99.90
7708;DHT22;3896;48.758;8.888;2023-08-31T03:39:27;13.20;99.90
7708;DHT22;3896;48.758;8.888;2023-08-31T03:41:52;13.20;99.90
7708;DHT22;3896;48.758;8.888;2023-08-31T03:44:18;13.20;99.90
7708;DHT22;3896;48.758;8.888;2023-08-31T03:46:43;13.20;99.90
7708;DHT22;3896;48.758;8.888;2023-08-31T03:49:09;13.20;99.90
7708;DHT22;3896;48.758;8.888;2023-08-31T03:51:35;13.10;99.90
7708;DHT22;3896;48.758;8.888;2023-08-31T03:54:00;13.10;99.90
7708;DHT22;3896;48.758;8.888;2023-08-31T03:56:26;13.10;99.90
7708;DHT22;3896;48.758;8.888;2023-08-31T03:58:52;13.10;99.90
7708;DHT22;3896;48.758;8.888;2023-08-31T04:01:17;13.10;99.90
7708;DHT22;3896;48.758;8.888;2023-08-31T04:03:43;13.10;99.90
7708;DHT22;3896;48.758;8.888;2023-08-31T04:06:09;13.10;99.90
7708;DHT22;3896;48.758;8.888;2023-08-31T04:08:34;13.10;99.90
7708;DHT22;3896;48.758;8.888;2023-08-31T04:11:00;13.10;99.90
7708;DHT22;3896;48.758;8.888;2023-08-31T04:13:26;13.10;99.90
7708;DHT22;3896;48.758;8.888;2023-08-31T04:15:52;13.10;99.90
7708;DHT22;3896;48.758;8.888;2023-08-31T04:18:18;13.10;99.90
7708;DHT22;3896;48.758;8.888;2023-08-31T04:20:52;13.10;99.90
7708;DHT22;3896;48.758;8.888;2023-08-31T04:23:18;13.10;99.90
7708;DHT22;3896;48.758;8.888;2023-08-31T04:25:45;13.10;99.90
7708;DHT22;3896;48.758;8.888;2023-08-31T04:28:11;13.10;99.90
7708;DHT22;3896;48.758;8.888;2023-08-31T04:30:37;13.10;99.90
7708;DHT22;3896;48.758;8.888;2023-08-31T04:33:03;13.10;99.90
7708;DHT22;3896;48.758;8.888;2023-08-31T04:35:30;13.10;99.90
7708;DHT22;3896;48.758;8.888;2023-08-31T04:37:57;13.10;99.90
7708;DHT22;3896;48.758;8.888;2023-08-31T04:40:22;13.10;99.90
7708;DHT22;3896;48.758;8.888;2023-08-31T04:42:48;13.10;99.90
7708;DHT22;3896;48.758;8.888;2023-08-31T04:45:13;13.10;99.90
7708;DHT22;3896;48.758;8.888;2023-08-31T04:47:39;13.10;99.90
7708;DHT22;3896;48.758;8.888;2023-08-31T04:50:05;13.10;99.90
7708;DHT22;3896;48.758;8.888;2023-08-31T04:52:32;13.10;99.90
7708;DHT22;3896;48.758;8.888;2023-08-31T04:54:58;13.10;99.90
7708;DHT22;3896;48.758;8.888;2023-08-31T04:57:23;13.10;99.90
7708;DHT22;3896;48.758;8.888;2023-08-31T04:59:49;13.10;99.90
7708;DHT22;3896;48.758;8.888;2023-08-31T05:02:15;13.10;99.90
7708;DHT22;3896;48.758;8.888;2023-08-31T05:04:40;13.10;99.90
7708;DHT22;3896;48.758;8.888;2023-08-31T05:07:06;13.10;99.90
7708;DHT22;3896;48.758;8.888;2023-08-31T05:09:31;13.10;99.90
7708;DHT22;3896;48.758;8.888;2023-08-31T05:12:03;13.10;99.90
7708;DHT22;3896;48.758;8.888;2023-08-31T05:14:29;13.10;99.90
7708;DHT22;3896;48.758;8.888;2023-08-31T05:16:55;13.10;99.90
7708;DHT22;3896;48.758;8.888;2023-08-31T05:19:21;13.10;99.90
7708;DHT22;3896;48.758;8.888;2023-08-31T05:21:47;13.10;99.90
7708;DHT22;3896;48.758;8.888;2023-08-31T05:24:13;13.10;99.90
7708;DHT22;3896;48.758;8.888;2023-08-31T05:26:39;13.10;99.90
7708;DHT22;3896;48.758;8.888;2023-08-31T05:29:05;13.10;99.90
7708;DHT22;3896;48.758;8.888;2023-08-31T05:31:31;13.10;99.90
7708;DHT22;3896;48.758;8.888;2023-08-31T05:33:57;13.10;99.90
7708;DHT22;3896;48.758;8.888;2023-08-31T05:36:22;13.10;99.90
7708;DHT22;3896;48.758;8.888;2023-08-31T05:38:48;13.10;99.90
7708;DHT22;3896;48.758;8.888;2023-08-31T05:41:13;13.10;99.90
7708;DHT22;3896;48.758;8.888;2023-08-31T05:43:39;13.10;99.90
7708;DHT22;3896;48.758;8.888;2023-08-31T05:46:06;13.10;99.90
7708;DHT22;3896;48.758;8.888;2023-08-31T05:48:32;13.20;99.90
7708;DHT22;3896;48.758;8.888;2023-08-31T05:50:57;13.20;99.90
7708;DHT22;3896;48.758;8.888;2023-08-31T05:53:23;13.20;99.90
7708;DHT22;3896;48.758;8.888;2023-08-31T05:55:49;13.20;99.90
7708;DHT22;3896;48.758;8.888;2023-08-31T05:58:14;13.30;99.90
7708;DHT22;3896;48.758;8.888;2023-08-31T06:00:40;13.30;99.90
7708;DHT22;3896;48.758;8.888;2023-08-31T06:03:05;13.30;99.90
7708;DHT22;3896;48.758;8.888;2023-08-31T06:05:34;13.30;99.90
7708;DHT22;3896;48.758;8.888;2023-08-31T06:08:00;13.40;99.90
7708;DHT22;3896;48.758;8.888;2023-08-31T06:10:26;13.40;99.90
7708;DHT22;3896;48.758;8.888;2023-08-31T06:12:51;13.50;99.90
7708;DHT22;3896;48.758;8.888;2023-08-31T06:15:17;13.60;99.90
7708;DHT22;3896;48.758;8.888;2023-08-31T06:17:43;13.60;99.90
7708;DHT22;3896;48.758;8.888;2023-08-31T06:20:09;13.60;99.90
7708;DHT22;3896;48.758;8.888;2023-08-31T06:22:35;13.60;99.90
7708;DHT22;3896;48.758;8.888;2023-08-31T06:25:00;13.70;99.90
7708;DHT22;3896;48.758;8.888;2023-08-31T06:27:26;13.70;99.90
7708;DHT22;3896;48.758;8.888;2023-08-31T06:29:52;13.80;99.90
7708;DHT22;3896;48.758;8.888;2023-08-31T06:32:18;13.80;99.90
7708;DHT22;3896;48.758;8.888;2023-08-31T06:34:44;13.90;99.90
7708;DHT22;3896;48.758;8.888;2023-08-31T06:37:09;13.90;99.90
7708;DHT22;3896;48.758;8.888;2023-08-31T06:39:35;14.00;99.90
7708;DHT22;3896;48.758;8.888;2023-08-31T06:42:02;14.10;99.90
7708;DHT22;3896;48.758;8.888;2023-08-31T06:44:27;14.10;99.90
7708;DHT22;3896;48.758;8.888;2023-08-31T06:46:55;14.20;99.90
7708;DHT22;3896;48.758;8.888;2023-08-31T06:49:22;14.20;99.90
7708;DHT22;3896;48.758;8.888;2023-08-31T06:51:47;14.30;99.90
7708;DHT22;3896;48.758;8.888;2023-08-31T06:54:13;14.40;99.90
7708;DHT22;3896;48.758;8.888;2023-08-31T06:56:38;14.40;99.90
7708;DHT22;3896;48.758;8.888;2023-08-31T06:59:04;14.50;99.90
7708;DHT22;3896;48.758;8.888;2023-08-31T07:01:29;14.50;99.90
7708;DHT22;3896;48.758;8.888;2023-08-31T07:03:55;14.60;99.90
7708;DHT22;3896;48.758;8.888;2023-08-31T07:06:21;14.60;99.90
7708;DHT22;3896;48.758;8.888;2023-08-31T07:08:47;14.70;99.90
7708;DHT22;3896;48.758;8.888;2023-08-31T07:11:13;14.70;99.90
7708;DHT22;3896;48.758;8.888;2023-08-31T07:13:39;14.80;99.90
7708;DHT22;3896;48.758;8.888;2023-08-31T07:16:05;14.80;99.90
7708;DHT22;3896;48.758;8.888;2023-08-31T07:18:31;14.90;99.90
7708;DHT22;3896;48.758;8.888;2023-08-31T07:20:57;15.00;99.90
7708;DHT22;3896;48.758;8.888;2023-08-31T07:23:23;15.10;99.90
7708;DHT22;3896;48.758;8.888;2023-08-31T07:25:49;15.10;99.90
7708;DHT22;3896;48.758;8.888;2023-08-31T07:28:14;15.20;99.90
7708;DHT22;3896;48.758;8.888;2023-08-31T07:30:40;15.30;99.90
7708;DHT22;3896;48.758;8.888;2023-08-31T07:33:06;15.30;99.90
7708;DHT22;3896;48.758;8.888;2023-08-31T07:35:32;15.40;99.90
7708;DHT22;3896;48.758;8.888;2023-08-31T07:37:58;15.40;99.90
7708;DHT22;3896;48.758;8.888;2023-08-31T07:40:23;15.40;99.90
7708;DHT22;3896;48.758;8.888;2023-08-31T07:42:50;15.40;99.90
7708;DHT22;3896;48.758;8.888;2023-08-31T07:45:16;15.50;99.90
7708;DHT22;3896;48.758;8.888;2023-08-31T07:47:42;15.60;99.90
7708;DHT22;3896;48.758;8.888;2023-08-31T07:50:08;15.60;99.90
7708;DHT22;3896;48.758;8.888;2023-08-31T07:52:34;15.70;99.90
7708;DHT22;3896;48.758;8.888;2023-08-31T07:55:00;15.80;99.90
7708;DHT22;3896;48.758;8.888;2023-08-31T07:57:25;15.90;99.90
7708;DHT22;3896;48.758;8.888;2023-08-31T07:59:51;16.00;99.90
7708;DHT22;3896;48.758;8.888;2023-08-31T08:02:17;16.10;99.90
7708;DHT22;3896;48.758;8.888;2023-08-31T08:04:45;16.10;99.90
7708;DHT22;3896;48.758;8.888;2023-08-31T08:07:10;16.20;99.90
7708;DHT22;3896;48.758;8.888;2023-08-31T08:09:36;16.30;99.90
7708;DHT22;3896;48.758;8.888;2023-08-31T08:12:01;16.40;99.90
7708;DHT22;3896;48.758;8.888;2023-08-31T08:14:28;16.50;99.90
7708;DHT22;3896;48.758;8.888;2023-08-31T08:16:54;16.60;99.90
7708;DHT22;3896;48.758;8.888;2023-08-31T08:19:23;16.70;99.90
7708;DHT22;3896;48.758;8.888;2023-08-31T08:21:52;16.70;99.90
7708;DHT22;3896;48.758;8.888;2023-08-31T08:24:18;16.90;99.90
7708;DHT22;3896;48.758;8.888;2023-08-31T08:26:43;17.00;99.90
7708;DHT22;3896;48.758;8.888;2023-08-31T08:29:09;17.10;99.90
7708;DHT22;3896;48.758;8.888;2023-08-31T08:31:35;17.20;99.90
7708;DHT22;3896;48.758;8.888;2023-08-31T08:34:01;17.30;99.90
7708;DHT22;3896;48.758;8.888;2023-08-31T08:36:26;17.40;99.90
7708;DHT22;3896;48.758;8.888;2023-08-31T08:38:52;17.50;99.90
7708;DHT22;3896;48.758;8.888;2023-08-31T08:41:22;17.50;99.90
7708;DHT22;3896;48.758;8.888;2023-08-31T08:43:48;17.60;99.90
7708;DHT22;3896;48.758;8.888;2023-08-31T08:46:15;17.70;99.90
7708;DHT22;3896;48.758;8.888;2023-08-31T08:48:42;17.70;99.00
7708;DHT22;3896;48.758;8.888;2023-08-31T08:51:10;17.80;98.00
7708;DHT22;3896;48.758;8.888;2023-08-31T08:53:36;17.90;97.50
7708;DHT22;3896;48.758;8.888;2023-08-31T08:56:04;18.00;95.70
7708;DHT22;3896;48.758;8.888;2023-08-31T08:58:29;18.20;94.20
7708;DHT22;3896;48.758;8.888;2023-08-31T09:00:55;18.30;93.20
7708;DHT22;3896;48.758;8.888;2023-08-31T09:03:22;18.50;91.90
7708;DHT22;3896;48.758;8.888;2023-08-31T09:05:48;18.70;91.40
7708;DHT22;3896;48.758;8.888;2023-08-31T09:08:14;18.70;90.30
7708;DHT22;3896;48.758;8.888;2023-08-31T09:10:42;18.90;89.90
7708;DHT22;3896;48.758;8.888;2023-08-31T09:13:13;19.00;89.00
7708;DHT22;3896;48.758;8.888;2023-08-31T09:15:46;19.00;87.70
7708;DHT22;3896;48.758;8.888;2023-08-31T09:18:31;19.10;86.20
7708;DHT22;3896;48.758;8.888;2023-08-31T09:20:59;19.10;85.40
7708;DHT22;3896;48.758;8.888;2023-08-31T09:23:26;19.30;84.50
7708;DHT22;3896;48.758;8.888;2023-08-31T09:25:53;19.30;83.60
7708;DHT22;3896;48.758;8.888;2023-08-31T09:28:21;19.40;82.50
7708;DHT22;3896;48.758;8.888;2023-08-31T09:30:49;19.60;82.00
7708;DHT22;3896;48.758;8.888;2023-08-31T09:33:19;19.70;81.20
7708;DHT22;3896;48.758;8.888;2023-08-31T09:35:53;19.80;81.00
7708;DHT22;3896;48.758;8.888;2023-08-31T09:38:21;20.00;80.40
7708;DHT22;3896;48.758;8.888;2023-08-31T09:40:46;20.10;78.10
7708;DHT22;3896;48.758;8.888;2023-08-31T09:43:22;20.30;77.70
7708;DHT22;3896;48.758;8.888;2023-08-31T09:45:48;20.40;76.90
7708;DHT22;3896;48.758;8.888;2023-08-31T09:48:15;20.60;75.70
7708;DHT22;3896;48.758;8.888;2023-08-31T09:50:44;20.80;73.90
7708;DHT22;3896;48.758;8.888;2023-08-31T09:53:10;21.00;73.50
7708;DHT22;3896;48.758;8.888;2023-08-31T09:55:39;21.10;72.60
7708;DHT22;3896;48.758;8.888;2023-08-31T09:58:07;21.20;73.30
7708;DHT22;3896;48.758;8.888;2023-08-31T10:00:35;21.20;72.00
7708;DHT22;3896;48.758;8.888;2023-08-31T10:03:03;21.30;71.30
7708;DHT22;3896;48.758;8.888;2023-08-31T10:05:29;21.30;70.90
7708;DHT22;3896;48.758;8.888;2023-08-31T10:07:57;21.30;69.60
7708;DHT22;3896;48.758;8.888;2023-08-31T10:10:23;21.30;68.40
7708;DHT22;3896;48.758;8.888;2023-08-31T10:12:50;21.30;67.30
7708;DHT22;3896;48.758;8.888;2023-08-31T10:15:17;21.30;67.50
7708;DHT22;3896;48.758;8.888;2023-08-31T10:17:44;21.30;67.70
7708;DHT22;3896;48.758;8.888;2023-08-31T10:20:11;21.30;67.60
7708;DHT22;3896;48.758;8.888;2023-08-31T10:22:38;21.40;67.30
7708;DHT22;3896;48.758;8.888;2023-08-31T10:25:05;21.40;66.90
7708;DHT22;3896;48.758;8.888;2023-08-31T10:27:44;21.40;66.50
7708;DHT22;3896;48.758;8.888;2023-08-31T10:30:24;21.40;66.70
7708;DHT22;3896;48.758;8.888;2023-08-31T10:35:55;21.30;66.00
7708;DHT22;3896;48.758;8.888;2023-08-31T10:38:32;21.30;65.90
7708;DHT22;3896;48.758;8.888;2023-08-31T10:43:46;21.30;65.80
7708;DHT22;3896;48.758;8.888;2023-08-31T10:46:19;21.20;65.80
7708;DHT22;3896;48.758;8.888;2023-08-31T10:48:54;21.20;65.50
7708;DHT22;3896;48.758;8.888;2023-08-31T10:51:32;21.20;66.20
7708;DHT22;3896;48.758;8.888;2023-08-31T10:54:20;21.20;66.10
7708;DHT22;3896;48.758;8.888;2023-08-31T10:59:26;21.10;65.20
7708;DHT22;3896;48.758;8.888;2023-08-31T11:01:57;21.20;65.30
7708;DHT22;3896;48.758;8.888;2023-08-31T11:04:24;21.30;65.10
7708;DHT22;3896;48.758;8.888;2023-08-31T11:07:16;21.30;64.60
7708;DHT22;3896;48.758;8.888;2023-08-31T11:09:43;21.30;64.70
7708;DHT22;3896;48.758;8.888;2023-08-31T11:12:10;21.40;64.60
7708;DHT22;3896;48.758;8.888;2023-08-31T11:14:35;21.40;63.70
7708;DHT22;3896;48.758;8.888;2023-08-31T11:17:01;21.50;63.20
7708;DHT22;3896;48.758;8.888;2023-08-31T11:19:28;21.50;62.70
7708;DHT22;3896;48.758;8.888;2023-08-31T11:21:54;21.50;62.80
7708;DHT22;3896;48.758;8.888;2023-08-31T11:24:20;21.50;63.30
7708;DHT22;3896;48.758;8.888;2023-08-31T11:26:50;21.50;63.50
7708;DHT22;3896;48.758;8.888;2023-08-31T11:29:16;21.60;63.90
7708;DHT22;3896;48.758;8.888;2023-08-31T11:31:41;21.60;63.80
7708;DHT22;3896;48.758;8.888;2023-08-31T11:34:12;21.60;63.40
7708;DHT22;3896;48.758;8.888;2023-08-31T11:36:38;21.70;63.20
7708;DHT22;3896;48.758;8.888;2023-08-31T11:39:06;21.80;62.40
7708;DHT22;3896;48.758;8.888;2023-08-31T11:41:36;21.90;61.70
7708;DHT22;3896;48.758;8.888;2023-08-31T11:44:06;21.90;62.00
7708;DHT22;3896;48.758;8.888;2023-08-31T11:46:32;21.90;62.20
7708;DHT22;3896;48.758;8.888;2023-08-31T11:48:59;21.90;61.80
7708;DHT22;3896;48.758;8.888;2023-08-31T11:51:25;22.00;62.00
7708;DHT22;3896;48.758;8.888;2023-08-31T11:53:54;21.90;61.70
7708;DHT22;3896;48.758;8.888;2023-08-31T11:56:21;22.00;60.90
7708;DHT22;3896;48.758;8.888;2023-08-31T11:58:47;22.10;60.50
7708;DHT22;3896;48.758;8.888;2023-08-31T12:01:20;22.10;60.70
7708;DHT22;3896;48.758;8.888;2023-08-31T12:03:47;22.10;60.50
7708;DHT22;3896;48.758;8.888;2023-08-31T12:06:18;22.10;60.00
7708;DHT22;3896;48.758;8.888;2023-08-31T12:08:44;22.10;60.40
7708;DHT22;3896;48.758;8.888;2023-08-31T12:11:10;22.10;60.70
7708;DHT22;3896;48.758;8.888;2023-08-31T12:13:35;22.20;60.80
7708;DHT22;3896;48.758;8.888;2023-08-31T12:16:01;22.30;60.40
7708;DHT22;3896;48.758;8.888;2023-08-31T12:18:36;22.40;60.40
7708;DHT22;3896;48.758;8.888;2023-08-31T12:21:02;22.50;60.00
7708;DHT22;3896;48.758;8.888;2023-08-31T12:23:29;22.70;59.40
7708;DHT22;3896;48.758;8.888;2023-08-31T12:25:54;22.90;59.00
7708;DHT22;3896;48.758;8.888;2023-08-31T12:28:23;23.00;59.30
7708;DHT22;3896;48.758;8.888;2023-08-31T12:30:53;23.00;59.30
7708;DHT22;3896;48.758;8.888;2023-08-31T12:33:20;23.10;59.10
7708;DHT22;3896;48.758;8.888;2023-08-31T12:35:46;23.10;59.30
7708;DHT22;3896;48.758;8.888;2023-08-31T12:38:12;23.10;58.40
7708;DHT22;3896;48.758;8.888;2023-08-31T12:40:38;23.20;57.90
7708;DHT22;3896;48.758;8.888;2023-08-31T12:43:04;23.20;58.00
7708;DHT22;3896;48.758;8.888;2023-08-31T12:45:30;23.20;58.30
7708;DHT22;3896;48.758;8.888;2023-08-31T12:47:55;23.10;58.00
7708;DHT22;3896;48.758;8.888;2023-08-31T12:50:21;23.10;58.30
7708;DHT22;3896;48.758;8.888;2023-08-31T12:52:47;23.00;58.40
7708;DHT22;3896;48.758;8.888;2023-08-31T12:55:13;22.90;58.60
7708;DHT22;3896;48.758;8.888;2023-08-31T12:57:39;22.90;59.10
7708;DHT22;3896;48.758;8.888;2023-08-31T13:00:07;22.90;59.50
7708;DHT22;3896;48.758;8.888;2023-08-31T13:02:37;22.90;59.80
7708;DHT22;3896;48.758;8.888;2023-08-31T13:05:03;23.00;59.90
7708;DHT22;3896;48.758;8.888;2023-08-31T13:07:28;23.10;59.20
7708;DHT22;3896;48.758;8.888;2023-08-31T13:09:54;23.20;59.20
7708;DHT22;3896;48.758;8.888;2023-08-31T13:12:19;23.40;59.60
7708;DHT22;3896;48.758;8.888;2023-08-31T13:14:45;23.50;58.00
7708;DHT22;3896;48.758;8.888;2023-08-31T13:17:11;23.60;57.90
7708;DHT22;3896;48.758;8.888;2023-08-31T13:19:36;23.80;58.10
7708;DHT22;3896;48.758;8.888;2023-08-31T13:22:02;24.00;58.40
7708;DHT22;3896;48.758;8.888;2023-08-31T13:24:27;24.10;58.60
7708;DHT22;3896;48.758;8.888;2023-08-31T13:26:53;24.20;57.20
7708;DHT22;3896;48.758;8.888;2023-08-31T13:29:20;24.40;57.10
7708;DHT22;3896;48.758;8.888;2023-08-31T13:31:46;24.60;56.50
7708;DHT22;3896;48.758;8.888;2023-08-31T13:34:11;24.70;56.30
7708;DHT22;3896;48.758;8.888;2023-08-31T13:36:38;24.80;55.70
7708;DHT22;3896;48.758;8.888;2023-08-31T13:39:04;24.80;54.80
7708;DHT22;3896;48.758;8.888;2023-08-31T13:41:29;24.80;54.50
7708;DHT22;3896;48.758;8.888;2023-08-31T13:43:55;24.70;54.20
7708;DHT22;3896;48.758;8.888;2023-08-31T13:46:21;24.60;54.00
7708;DHT22;3896;48.758;8.888;2023-08-31T13:48:46;24.60;54.20
7708;DHT22;3896;48.758;8.888;2023-08-31T13:51:13;24.40;54.40
7708;DHT22;3896;48.758;8.888;2023-08-31T13:53:39;24.30;54.70
7708;DHT22;3896;48.758;8.888;2023-08-31T13:56:04;24.20;54.90
7708;DHT22;3896;48.758;8.888;2023-08-31T13:58:30;24.10;55.20
7708;DHT22;3896;48.758;8.888;2023-08-31T14:00:55;24.00;55.90
7708;DHT22;3896;48.758;8.888;2023-08-31T14:03:21;23.80;56.00
7708;DHT22;3896;48.758;8.888;2023-08-31T14:05:49;23.70;56.20
7708;DHT22;3896;48.758;8.888;2023-08-31T14:08:15;23.60;56.10
7708;DHT22;3896;48.758;8.888;2023-08-31T14:10:41;23.50;55.70
7708;DHT22;3896;48.758;8.888;2023-08-31T14:13:06;23.50;55.70
7708;DHT22;3896;48.758;8.888;2023-08-31T14:15:32;23.40;55.90
7708;DHT22;3896;48.758;8.888;2023-08-31T14:17:58;23.30;56.10
7708;DHT22;3896;48.758;8.888;2023-08-31T14:20:24;23.20;56.20
7708;DHT22;3896;48.758;8.888;2023-08-31T14:22:49;23.10;56.30
7708;DHT22;3896;48.758;8.888;2023-08-31T14:25:16;23.00;56.70
7708;DHT22;3896;48.758;8.888;2023-08-31T14:27:42;23.00;57.00
7708;DHT22;3896;48.758;8.888;2023-08-31T14:30:08;22.90;57.70
7708;DHT22;3896;48.758;8.888;2023-08-31T14:32:34;22.80;57.80
7708;DHT22;3896;48.758;8.888;2023-08-31T14:35:00;22.70;58.20
7708;DHT22;3896;48.758;8.888;2023-08-31T14:37:25;22.60;58.20
7708;DHT22;3896;48.758;8.888;2023-08-31T14:39:51;22.60;58.20
7708;DHT22;3896;48.758;8.888;2023-08-31T14:42:17;22.50;58.30
7708;DHT22;3896;48.758;8.888;2023-08-31T14:44:46;22.50;59.30
7708;DHT22;3896;48.758;8.888;2023-08-31T14:47:11;22.40;59.00
7708;DHT22;3896;48.758;8.888;2023-08-31T14:49:38;22.40;58.90
7708;DHT22;3896;48.758;8.888;2023-08-31T14:52:06;22.40;59.40
7708;DHT22;3896;48.758;8.888;2023-08-31T14:54:33;22.30;59.50
7708;DHT22;3896;48.758;8.888;2023-08-31T14:56:58;22.30;59.30
7708;DHT22;3896;48.758;8.888;2023-08-31T14:59:24;22.30;59.40
7708;DHT22;3896;48.758;8.888;2023-08-31T15:01:50;22.40;59.50
7708;DHT22;3896;48.758;8.888;2023-08-31T15:04:15;22.30;59.50
7708;DHT22;3896;48.758;8.888;2023-08-31T15:06:41;22.40;60.10
7708;DHT22;3896;48.758;8.888;2023-08-31T15:09:07;22.40;59.30
7708;DHT22;3896;48.758;8.888;2023-08-31T15:11:32;22.40;59.50
7708;DHT22;3896;48.758;8.888;2023-08-31T15:13:58;22.40;59.60
7708;DHT22;3896;48.758;8.888;2023-08-31T15:16:24;22.40;59.70
7708;DHT22;3896;48.758;8.888;2023-08-31T15:18:50;22.40;60.20
7708;DHT22;3896;48.758;8.888;2023-08-31T15:21:16;22.40;60.70
7708;DHT22;3896;48.758;8.888;2023-08-31T15:23:43;22.40;60.50
7708;DHT22;3896;48.758;8.888;2023-08-31T15:26:10;22.40;60.50
7708;DHT22;3896;48.758;8.888;2023-08-31T15:28:35;22.30;60.20
7708;DHT22;3896;48.758;8.888;2023-08-31T15:31:02;22.30;60.40
7708;DHT22;3896;48.758;8.888;2023-08-31T15:33:27;22.20;61.00
7708;DHT22;3896;48.758;8.888;2023-08-31T15:36:02;22.20;61.60
7708;DHT22;3896;48.758;8.888;2023-08-31T15:38:29;22.10;61.90
7708;DHT22;3896;48.758;8.888;2023-08-31T15:40:55;22.00;61.50
7708;DHT22;3896;48.758;8.888;2023-08-31T15:43:21;22.00;61.30
7708;DHT22;3896;48.758;8.888;2023-08-31T15:45:47;22.00;60.80
7708;DHT22;3896;48.758;8.888;2023-08-31T15:48:13;22.00;60.40
7708;DHT22;3896;48.758;8.888;2023-08-31T15:50:39;21.90;60.70
7708;DHT22;3896;48.758;8.888;2023-08-31T15:53:04;21.90;61.20
7708;DHT22;3896;48.758;8.888;2023-08-31T15:55:30;21.80;61.10
7708;DHT22;3896;48.758;8.888;2023-08-31T15:57:56;21.80;61.60
7708;DHT22;3896;48.758;8.888;2023-08-31T16:00:21;21.70;61.80
7708;DHT22;3896;48.758;8.888;2023-08-31T16:02:48;21.70;62.10
7708;DHT22;3896;48.758;8.888;2023-08-31T16:05:14;21.70;62.40
7708;DHT22;3896;48.758;8.888;2023-08-31T16:07:39;21.60;62.90
7708;DHT22;3896;48.758;8.888;2023-08-31T16:10:06;21.60;63.10
7708;DHT22;3896;48.758;8.888;2023-08-31T16:12:33;21.70;63.80
7708;DHT22;3896;48.758;8.888;2023-08-31T16:14:58;21.60;64.20
7708;DHT22;3896;48.758;8.888;2023-08-31T16:17:24;21.60;63.40
7708;DHT22;3896;48.758;8.888;2023-08-31T16:19:50;21.70;63.10
7708;DHT22;3896;48.758;8.888;2023-08-31T16:22:15;21.70;63.60
7708;DHT22;3896;48.758;8.888;2023-08-31T16:24:41;21.60;63.90
7708;DHT22;3896;48.758;8.888;2023-08-31T16:27:07;21.60;63.40
7708;DHT22;3896;48.758;8.888;2023-08-31T16:29:32;21.60;63.40
7708;DHT22;3896;48.758;8.888;2023-08-31T16:31:58;21.60;63.70